createdAt,value
2022-11-21T00:00:27.908Z,100.00
2022-11-21T00:02:54.475Z,100.00
2022-11-21T00:05:20.959Z,100.00
2022-11-21T00:07:47.451Z,100.00
2022-11-21T00:10:14.031Z,100.00
2022-11-21T00:12:40.515Z,100.00
2022-11-21T00:15:07.366Z,100.00
2022-11-21T00:17:33.844Z,100.00
2022-11-21T00:20:00.296Z,100.00
2022-11-21T00:22:26.788Z,100.00
2022-11-21T00:24:54.400Z,100.00
2022-11-21T00:27:20.948Z,100.00
2022-11-21T00:29:47.414Z,100.00
2022-11-21T00:32:13.852Z,100.00
2022-11-21T00:34:40.401Z,100.00
2022-11-21T00:37:06.862Z,100.00
2022-11-21T00:39:33.371Z,100.00
2022-11-21T00:41:59.848Z,100.00
2022-11-21T00:44:26.634Z,100.00
2022-11-21T00:46:53.255Z,100.00
2022-11-21T00:49:19.707Z,100.00
2022-11-21T00:51:46.243Z,100.00
2022-11-21T00:54:12.792Z,100.00
2022-11-21T00:56:39.320Z,100.00
2022-11-21T00:59:05.754Z,100.00
2022-11-21T01:01:32.308Z,100.00
2022-11-21T01:03:59.132Z,100.00
2022-11-21T01:06:25.654Z,100.00
2022-11-21T01:08:52.112Z,100.00
2022-11-21T01:11:20.291Z,100.00
2022-11-21T01:13:48.703Z,100.00
2022-11-21T01:16:21.151Z,100.00
2022-11-21T01:18:48.297Z,100.00
2022-11-21T01:21:20.594Z,100.00
2022-11-21T01:23:48.064Z,100.00
2022-11-21T01:26:17.527Z,100.00
2022-11-21T01:28:44.329Z,100.00
2022-11-21T01:31:17.136Z,100.00
2022-11-21T01:33:43.683Z,100.00
2022-11-21T01:36:21.870Z,100.00
2022-11-21T01:38:50.162Z,100.00
2022-11-21T01:41:19.227Z,100.00
2022-11-21T01:43:47.732Z,100.00
2022-11-21T01:46:16.530Z,100.00
2022-11-21T01:48:52.478Z,100.00
2022-11-21T01:51:31.439Z,100.00
2022-11-21T01:54:06.232Z,100.00
2022-11-21T01:56:56.416Z,100.00
2022-11-21T01:59:29.156Z,100.00
2022-11-21T02:01:57.886Z,100.00
2022-11-21T02:04:28.940Z,100.00
2022-11-21T02:06:55.651Z,100.00
2022-11-21T02:09:22.519Z,100.00
2022-11-21T02:11:54.466Z,100.00
2022-11-21T02:14:20.924Z,100.00
2022-11-21T02:16:47.511Z,100.00
2022-11-21T02:19:52.015Z,100.00
2022-11-21T02:22:45.835Z,100.00
2022-11-21T02:25:18.183Z,100.00
2022-11-21T02:27:46.197Z,100.00
2022-11-21T02:30:13.402Z,100.00
2022-11-21T02:32:49.512Z,100.00
2022-11-21T02:35:18.174Z,100.00
2022-11-21T02:37:58.122Z,100.00
2022-11-21T02:40:29.075Z,100.00
2022-11-21T02:43:13.595Z,100.00
2022-11-21T02:45:42.417Z,100.00
2022-11-21T02:48:09.676Z,100.00
2022-11-21T02:50:41.364Z,100.00
2022-11-21T02:53:13.179Z,100.00
2022-11-21T02:55:39.909Z,100.00
2022-11-21T02:58:06.654Z,100.00
2022-11-21T03:00:35.296Z,100.00
2022-11-21T03:03:02.141Z,100.00
2022-11-21T03:05:28.735Z,100.00
2022-11-21T03:07:55.225Z,100.00
2022-11-21T03:10:21.714Z,100.00
2022-11-21T03:12:48.465Z,100.00
2022-11-21T03:15:15.809Z,100.00
2022-11-21T03:17:43.577Z,100.00
2022-11-21T03:20:10.864Z,100.00
2022-11-21T03:22:37.645Z,100.00
2022-11-21T03:25:04.509Z,100.00
2022-11-21T03:27:30.984Z,100.00
2022-11-21T03:29:57.433Z,100.00
2022-11-21T03:32:23.977Z,100.00
2022-11-21T03:34:50.479Z,100.00
2022-11-21T03:37:17.148Z,100.00
2022-11-21T03:39:43.823Z,100.00
2022-11-21T03:42:10.337Z,100.00
2022-11-21T03:44:36.775Z,100.00
2022-11-21T03:47:03.423Z,100.00
2022-11-21T03:49:29.891Z,100.00
2022-11-21T03:51:56.448Z,100.00
2022-11-21T03:54:22.906Z,100.00
2022-11-21T03:56:49.399Z,100.00
2022-11-21T03:59:15.845Z,100.00
2022-11-21T04:01:42.405Z,100.00
2022-11-21T04:04:08.898Z,100.00
2022-11-21T04:06:35.366Z,100.00
2022-11-21T04:09:01.926Z,100.00
2022-11-21T04:11:28.496Z,100.00
2022-11-21T04:13:55.169Z,100.00
2022-11-21T04:16:21.755Z,100.00
2022-11-21T04:18:48.312Z,100.00
2022-11-21T04:21:14.807Z,100.00
2022-11-21T04:23:41.403Z,100.00
2022-11-21T04:26:08.201Z,100.00
2022-11-21T04:28:34.761Z,100.00
2022-11-21T04:31:10.336Z,100.00
2022-11-21T04:33:38.982Z,100.00
2022-11-21T04:36:06.686Z,100.00
2022-11-21T04:38:33.187Z,100.00
2022-11-21T04:40:59.668Z,100.00
2022-11-21T04:43:26.285Z,100.00
2022-11-21T04:45:52.807Z,100.00
2022-11-21T04:48:19.292Z,100.00
2022-11-21T04:50:45.930Z,100.00
2022-11-21T04:53:12.419Z,100.00
2022-11-21T04:55:38.891Z,100.00
2022-11-21T04:58:05.531Z,100.00
2022-11-21T05:00:32.059Z,100.00
2022-11-21T05:03:05.697Z,100.00
2022-11-21T05:05:32.729Z,100.00
2022-11-21T05:07:59.232Z,100.00
2022-11-21T05:10:25.715Z,100.00
2022-11-21T05:13:18.286Z,100.00
2022-11-21T05:15:45.073Z,100.00
2022-11-21T05:18:12.101Z,100.00
2022-11-21T05:20:38.691Z,100.00
2022-11-21T05:23:05.370Z,100.00
2022-11-21T05:25:31.837Z,100.00
2022-11-21T05:27:58.462Z,100.00
2022-11-21T05:30:25.003Z,100.00
2022-11-21T05:32:51.475Z,100.00
2022-11-21T05:35:17.932Z,100.00
2022-11-21T05:37:44.392Z,100.00
2022-11-21T05:40:11.402Z,100.00
2022-11-21T05:43:02.275Z,100.00
2022-11-21T05:45:28.728Z,100.00
2022-11-21T05:47:55.273Z,100.00
2022-11-21T05:50:21.682Z,100.00
2022-11-21T05:52:48.179Z,100.00
2022-11-21T05:55:14.821Z,100.00
2022-11-21T05:57:41.292Z,100.00
2022-11-21T06:00:08.542Z,100.00
2022-11-21T06:02:53.765Z,100.00
2022-11-21T06:05:20.326Z,100.00
2022-11-21T06:07:46.814Z,100.00
2022-11-21T06:10:13.340Z,100.00
2022-11-21T06:12:39.777Z,100.00
2022-11-21T06:15:06.741Z,100.00
2022-11-21T06:17:33.266Z,100.00
2022-11-21T06:19:59.710Z,100.00
2022-11-21T06:22:26.158Z,100.00
2022-11-21T06:24:52.634Z,100.00
2022-11-21T06:27:19.069Z,100.00
2022-11-21T06:29:45.552Z,100.00
2022-11-21T06:32:12.096Z,100.00
2022-11-21T06:34:38.588Z,100.00
2022-11-21T06:37:05.147Z,100.00
2022-11-21T06:39:31.631Z,100.00
2022-11-21T06:41:58.935Z,100.00
2022-11-21T06:44:25.638Z,100.00
2022-11-21T06:46:52.260Z,100.00
2022-11-21T06:49:18.821Z,100.00
2022-11-21T06:51:45.290Z,100.00
2022-11-21T06:54:28.410Z,100.00
2022-11-21T06:56:55.529Z,100.00
2022-11-21T06:59:22.049Z,100.00
2022-11-21T07:01:48.619Z,100.00
2022-11-21T07:04:15.154Z,100.00
2022-11-21T07:06:41.571Z,100.00
2022-11-21T07:09:32.150Z,100.00
2022-11-21T07:11:54.905Z,100.00
2022-11-21T07:14:21.352Z,100.00
2022-11-21T07:16:47.795Z,100.00
2022-11-21T07:19:14.312Z,100.00
2022-11-21T07:21:40.804Z,100.00
2022-11-21T07:24:07.338Z,100.00
2022-11-21T07:26:33.795Z,100.00
2022-11-21T07:29:00.321Z,100.00
2022-11-21T07:31:26.962Z,100.00
2022-11-21T07:33:53.433Z,100.00
2022-11-21T07:36:19.911Z,100.00
2022-11-21T07:38:46.720Z,100.00
2022-11-21T07:41:13.202Z,100.00
2022-11-21T07:43:39.703Z,100.00
2022-11-21T07:46:06.447Z,100.00
2022-11-21T07:48:32.916Z,100.00
2022-11-21T07:50:59.378Z,100.00
2022-11-21T07:53:25.816Z,100.00
2022-11-21T07:55:52.316Z,100.00
2022-11-21T07:58:18.780Z,100.00
2022-11-21T08:00:45.548Z,100.00
2022-11-21T08:03:12.948Z,100.00
2022-11-21T08:05:41.965Z,100.00
2022-11-21T08:08:10.171Z,100.00
2022-11-21T08:10:42.557Z,100.00
2022-11-21T08:13:09.280Z,100.00
2022-11-21T08:15:36.403Z,100.00
2022-11-21T08:18:09.672Z,100.00
2022-11-21T08:20:36.252Z,100.00
2022-11-21T08:23:02.950Z,100.00
2022-11-21T08:25:29.411Z,100.00
2022-11-21T08:27:57.550Z,100.00
2022-11-21T08:30:24.427Z,100.00
2022-11-21T08:32:51.065Z,100.00
2022-11-21T08:35:17.713Z,100.00
2022-11-21T08:37:44.206Z,100.00
2022-11-21T08:40:11.105Z,100.00
2022-11-21T08:42:37.989Z,100.00
2022-11-21T08:45:05.759Z,100.00
2022-11-21T08:47:35.020Z,100.00
2022-11-21T08:50:07.438Z,100.00
2022-11-21T08:52:35.180Z,100.00
2022-11-21T08:55:01.646Z,100.00
2022-11-21T08:57:28.118Z,100.00
2022-11-21T08:59:54.559Z,100.00
2022-11-21T09:02:21.019Z,100.00
2022-11-21T09:04:47.509Z,100.00
2022-11-21T09:07:14.012Z,99.55
2022-11-21T09:09:40.549Z,99.07
2022-11-21T09:12:07.174Z,98.02
2022-11-21T09:14:52.205Z,96.04
2022-11-21T09:17:37.485Z,95.57
2022-11-21T09:20:04.405Z,94.83
2022-11-21T09:22:30.887Z,98.09
2022-11-21T09:24:57.333Z,98.40
2022-11-21T09:27:23.802Z,96.20
2022-11-21T09:29:54.041Z,95.65
2022-11-21T09:32:21.273Z,96.03
2022-11-21T09:34:47.772Z,96.07
2022-11-21T09:37:14.336Z,96.17
2022-11-21T09:39:40.805Z,96.96
2022-11-21T09:42:22.436Z,97.57
2022-11-21T09:45:02.305Z,96.16
2022-11-21T09:47:34.968Z,93.99
2022-11-21T09:50:21.197Z,93.49
2022-11-21T09:52:54.131Z,94.33
2022-11-21T09:55:39.777Z,90.13
2022-11-21T09:58:37.226Z,86.50
2022-11-21T10:01:04.239Z,89.15
2022-11-21T10:03:35.859Z,90.54
2022-11-21T10:06:27.103Z,90.04
2022-11-21T10:09:02.824Z,90.26
2022-11-21T10:12:06.931Z,86.72
2022-11-21T10:14:45.386Z,84.41
2022-11-21T10:17:38.600Z,85.45
2022-11-21T10:20:24.617Z,77.67
2022-11-21T10:23:26.339Z,77.51
2022-11-21T10:26:14.111Z,80.67
2022-11-21T10:29:25.787Z,82.64
2022-11-21T10:31:58.611Z,82.39
2022-11-21T10:34:30.251Z,81.66
2022-11-21T10:37:15.691Z,79.23
2022-11-21T10:39:46.304Z,78.26
2022-11-21T10:42:26.800Z,70.94
2022-11-21T10:45:11.857Z,72.90
2022-11-21T10:47:38.379Z,68.21
2022-11-21T10:50:10.674Z,65.40
2022-11-21T10:53:34.895Z,65.90
2022-11-21T10:56:05.952Z,64.29
2022-11-21T10:58:46.078Z,62.15
2022-11-21T11:01:34.267Z,60.76
2022-11-21T11:04:26.702Z,60.51
2022-11-21T11:06:55.037Z,57.87
2022-11-21T11:09:24.327Z,55.60
2022-11-21T11:11:50.929Z,56.15
2022-11-21T11:14:30.250Z,59.88
2022-11-21T11:16:57.016Z,62.70
2022-11-21T11:19:35.403Z,65.03
2022-11-21T11:22:05.072Z,69.36
2022-11-21T11:24:31.590Z,69.70
2022-11-21T11:27:01.245Z,73.93
2022-11-21T11:29:30.734Z,73.61
2022-11-21T11:32:21.242Z,74.91
2022-11-21T11:35:00.329Z,73.13
2022-11-21T11:37:40.752Z,71.38
2022-11-21T11:40:37.706Z,72.14
2022-11-21T11:43:35.897Z,70.49
2022-11-21T11:46:45.015Z,71.23
2022-11-21T11:49:21.463Z,70.31
2022-11-21T11:51:53.405Z,76.79
2022-11-21T11:54:26.557Z,72.72
2022-11-21T11:56:53.913Z,71.71
2022-11-21T11:59:32.828Z,72.94
2022-11-21T12:02:10.348Z,72.00
2022-11-21T12:04:47.533Z,72.87
2022-11-21T12:10:20.717Z,74.18
2022-11-21T12:12:55.928Z,74.41
2022-11-21T12:15:49.020Z,74.31
2022-11-21T12:18:15.418Z,73.53
2022-11-21T12:20:50.882Z,74.44
2022-11-21T12:23:18.707Z,74.14
2022-11-21T12:26:03.373Z,76.81
2022-11-21T12:28:51.154Z,75.62
2022-11-21T12:31:23.480Z,74.51
2022-11-21T12:34:04.066Z,73.02
2022-11-21T12:36:40.260Z,75.05
2022-11-21T12:39:21.599Z,74.87
2022-11-21T12:42:50.906Z,75.24
2022-11-21T12:45:52.386Z,76.59
2022-11-21T12:48:47.147Z,74.73
2022-11-21T12:51:59.094Z,75.56
2022-11-21T12:54:52.833Z,76.00
2022-11-21T12:57:21.331Z,76.67
2022-11-21T13:00:07.704Z,79.17
2022-11-21T13:02:58.818Z,81.27
2022-11-21T13:05:28.441Z,79.18
2022-11-21T13:08:01.028Z,82.04
2022-11-21T13:10:28.145Z,79.23
2022-11-21T13:13:14.778Z,78.07
2022-11-21T13:15:54.007Z,76.63
2022-11-21T13:18:26.268Z,78.96
2022-11-21T13:20:52.898Z,79.42
2022-11-21T13:23:40.630Z,81.56
2022-11-21T13:26:25.509Z,83.05
2022-11-21T13:29:08.357Z,81.39
2022-11-21T13:31:36.119Z,84.06
2022-11-21T13:34:05.226Z,82.43
2022-11-21T13:36:32.172Z,84.95
2022-11-21T13:38:58.711Z,83.76
2022-11-21T13:41:53.037Z,85.67
2022-11-21T13:44:31.516Z,87.26
2022-11-21T13:47:10.355Z,86.60
2022-11-21T13:49:55.918Z,89.06
2022-11-21T13:52:32.072Z,91.93
2022-11-21T13:55:16.916Z,91.51
2022-11-21T13:57:56.698Z,92.74
2022-11-21T14:00:42.885Z,92.78
2022-11-21T14:03:21.608Z,90.12
2022-11-21T14:06:16.500Z,86.56
2022-11-21T14:08:43.856Z,87.04
2022-11-21T14:11:36.509Z,86.59
2022-11-21T14:14:03.076Z,86.33
2022-11-21T14:16:36.802Z,88.20
2022-11-21T14:19:04.872Z,89.06
2022-11-21T14:21:34.022Z,89.12
2022-11-21T14:24:06.851Z,87.78
2022-11-21T14:26:43.289Z,88.80
2022-11-21T14:29:26.605Z,88.56
2022-11-21T14:31:54.182Z,89.68
2022-11-21T14:34:28.724Z,91.02
2022-11-21T14:36:59.174Z,91.36
2022-11-21T14:39:38.754Z,92.33
2022-11-21T14:42:13.612Z,92.69
2022-11-21T14:44:40.118Z,94.77
2022-11-21T14:47:25.912Z,97.20
2022-11-21T14:49:55.906Z,96.07
2022-11-21T14:52:31.472Z,97.11
2022-11-21T14:55:28.668Z,99.20
2022-11-21T14:57:47.111Z,98.72
2022-11-21T15:00:43.502Z,98.77
2022-11-21T15:03:03.389Z,99.36
2022-11-21T15:06:02.561Z,99.74
2022-11-21T15:11:11.737Z,100.00
2022-11-21T15:13:58.451Z,100.00
2022-11-21T15:16:25.476Z,100.00
2022-11-21T15:18:52.063Z,97.65
2022-11-21T15:21:18.588Z,99.06
2022-11-21T15:23:45.492Z,99.31
2022-11-21T15:26:32.556Z,100.00
2022-11-21T15:29:00.457Z,100.00
2022-11-21T15:31:27.669Z,100.00
2022-11-21T15:34:27.274Z,100.00
2022-11-21T15:36:43.772Z,100.00
2022-11-21T15:39:19.855Z,100.00
2022-11-21T15:41:46.359Z,100.00
2022-11-21T15:44:12.779Z,100.00
2022-11-21T15:46:43.065Z,100.00
2022-11-21T15:49:32.340Z,100.00
2022-11-21T15:52:09.779Z,100.00
2022-11-21T15:54:38.402Z,100.00
2022-11-21T15:57:07.127Z,100.00
2022-11-21T15:59:34.144Z,100.00
2022-11-21T16:02:01.949Z,100.00
2022-11-21T16:04:29.349Z,100.00
2022-11-21T16:06:56.910Z,100.00
2022-11-21T16:09:26.344Z,100.00
2022-11-21T16:11:53.591Z,100.00
2022-11-21T16:14:20.969Z,100.00
2022-11-21T16:16:48.573Z,100.00
2022-11-21T16:19:15.911Z,100.00
2022-11-21T16:21:42.562Z,100.00
2022-11-21T16:24:09.160Z,100.00
2022-11-21T16:26:35.695Z,100.00
2022-11-21T16:29:05.247Z,100.00
2022-11-21T16:31:32.318Z,100.00
2022-11-21T16:33:59.305Z,100.00
2022-11-21T16:36:28.217Z,100.00
2022-11-21T16:39:00.490Z,100.00
2022-11-21T16:41:30.104Z,100.00
2022-11-21T16:43:56.646Z,100.00
2022-11-21T16:46:24.591Z,100.00
2022-11-21T16:49:02.350Z,100.00
2022-11-21T16:51:29.616Z,100.00
2022-11-21T16:53:57.191Z,100.00
2022-11-21T16:56:24.406Z,100.00
2022-11-21T16:58:50.979Z,100.00
2022-11-21T17:01:19.791Z,100.00
2022-11-21T17:03:47.747Z,100.00
2022-11-21T17:06:17.912Z,100.00
2022-11-21T17:08:44.745Z,100.00
2022-11-21T17:11:16.890Z,100.00
2022-11-21T17:13:44.501Z,100.00
2022-11-21T17:16:12.011Z,100.00
2022-11-21T17:18:39.249Z,100.00
2022-11-21T17:21:08.893Z,100.00
2022-11-21T17:23:38.045Z,100.00
2022-11-21T17:26:06.618Z,100.00
2022-11-21T17:28:34.631Z,100.00
2022-11-21T17:31:11.966Z,100.00
2022-11-21T17:33:38.901Z,100.00
2022-11-21T17:36:07.488Z,100.00
2022-11-21T17:38:33.980Z,100.00
2022-11-21T17:41:07.609Z,100.00
2022-11-21T17:43:34.796Z,100.00
2022-11-21T17:46:09.091Z,100.00
2022-11-21T17:48:36.843Z,100.00
2022-11-21T17:51:07.074Z,100.00
2022-11-21T17:53:36.625Z,100.00
2022-11-21T17:56:05.192Z,100.00
2022-11-21T17:58:32.359Z,100.00
2022-11-21T18:01:00.939Z,100.00
2022-11-21T18:03:28.012Z,100.00
2022-11-21T18:06:02.387Z,100.00
2022-11-21T18:08:34.552Z,100.00
2022-11-21T18:11:01.319Z,100.00
2022-11-21T18:13:29.288Z,100.00
2022-11-21T18:15:59.290Z,100.00
2022-11-21T18:18:25.757Z,100.00
2022-11-21T18:20:52.226Z,100.00
2022-11-21T18:23:18.752Z,100.00
2022-11-21T18:25:45.309Z,100.00
2022-11-21T18:28:11.961Z,100.00
2022-11-21T18:30:38.426Z,100.00
2022-11-21T18:33:05.069Z,100.00
2022-11-21T18:35:31.543Z,100.00
2022-11-21T18:37:58.040Z,100.00
2022-11-21T18:40:24.592Z,100.00
2022-11-21T18:42:51.836Z,100.00
2022-11-21T18:45:18.929Z,100.00
2022-11-21T18:47:47.908Z,100.00
2022-11-21T18:50:15.745Z,100.00
2022-11-21T18:52:46.383Z,100.00
2022-11-21T18:55:13.368Z,100.00
2022-11-21T18:57:39.855Z,100.00
2022-11-21T19:00:07.327Z,100.00
2022-11-21T19:02:34.051Z,99.56
2022-11-21T19:05:00.540Z,99.24
2022-11-21T19:07:27.133Z,99.87
2022-11-21T19:09:53.826Z,99.64
2022-11-21T19:12:20.447Z,98.92
2022-11-21T19:14:47.093Z,100.00
2022-11-21T19:17:13.547Z,100.00
2022-11-21T19:19:40.138Z,100.00
2022-11-21T19:22:06.641Z,100.00
2022-11-21T19:24:33.375Z,100.00
2022-11-21T19:26:59.906Z,100.00
2022-11-21T19:29:26.804Z,100.00
2022-11-21T19:31:53.538Z,100.00
2022-11-21T19:34:20.113Z,100.00
2022-11-21T19:36:46.691Z,100.00
2022-11-21T19:39:13.574Z,100.00
2022-11-21T19:41:40.420Z,100.00
2022-11-21T19:44:07.097Z,100.00
2022-11-21T19:46:36.282Z,100.00
2022-11-21T19:49:04.886Z,100.00
2022-11-21T19:51:33.911Z,100.00
2022-11-21T19:54:08.722Z,100.00
2022-11-21T19:56:36.048Z,100.00
2022-11-21T19:59:03.170Z,100.00
2022-11-21T20:01:31.421Z,100.00
2022-11-21T20:04:00.302Z,100.00
2022-11-21T20:06:28.916Z,100.00
2022-11-21T20:08:58.179Z,100.00
2022-11-21T20:11:26.524Z,100.00
2022-11-21T20:13:53.317Z,100.00
2022-11-21T20:16:29.841Z,100.00
2022-11-21T20:18:59.694Z,100.00
2022-11-21T20:21:26.661Z,100.00
2022-11-21T20:23:53.483Z,100.00
2022-11-21T20:26:22.256Z,100.00
2022-11-21T20:28:49.579Z,100.00
2022-11-21T20:31:21.983Z,100.00
2022-11-21T20:33:51.009Z,100.00
2022-11-21T20:36:20.630Z,100.00
2022-11-21T20:38:54.610Z,100.00
2022-11-21T20:41:22.871Z,100.00
2022-11-21T20:44:34.643Z,100.00
2022-11-21T20:46:40.010Z,100.00
2022-11-21T20:49:06.651Z,100.00
2022-11-21T20:54:19.884Z,100.00
2022-11-21T20:56:46.455Z,100.00
2022-11-21T20:59:13.263Z,100.00
2022-11-21T21:01:40.101Z,100.00
2022-11-21T21:04:06.834Z,100.00
2022-11-21T21:06:33.323Z,100.00
2022-11-21T21:08:59.803Z,100.00
2022-11-21T21:11:50.265Z,100.00
2022-11-21T21:14:12.706Z,100.00
2022-11-21T21:16:39.237Z,100.00
2022-11-21T21:19:05.751Z,100.00
2022-11-21T21:21:32.282Z,100.00
2022-11-21T21:23:58.715Z,100.00
2022-11-21T21:26:28.950Z,100.00
2022-11-21T21:28:57.332Z,100.00
2022-11-21T21:31:24.346Z,100.00
2022-11-21T21:33:50.821Z,100.00
2022-11-21T21:36:21.990Z,100.00
2022-11-21T21:38:53.739Z,100.00
2022-11-21T21:41:21.137Z,100.00
2022-11-21T21:43:52.445Z,100.00
2022-11-21T21:46:21.806Z,100.00
2022-11-21T21:48:48.693Z,100.00
2022-11-21T21:51:16.292Z,100.00
2022-11-21T21:53:43.450Z,100.00
2022-11-21T21:56:10.596Z,100.00
2022-11-21T21:58:39.879Z,100.00
2022-11-21T22:01:18.132Z,100.00
2022-11-21T22:03:45.586Z,100.00
2022-11-21T22:06:17.229Z,100.00
2022-11-21T22:08:45.457Z,100.00
2022-11-21T22:11:14.794Z,100.00
2022-11-21T22:13:43.846Z,100.00
2022-11-21T22:16:12.184Z,100.00
2022-11-21T22:18:39.612Z,100.00
2022-11-21T22:21:29.208Z,100.00
2022-11-21T22:24:23.471Z,100.00
2022-11-21T22:26:43.047Z,100.00
2022-11-21T22:29:09.570Z,100.00
2022-11-21T22:31:36.193Z,100.00
2022-11-21T22:34:02.907Z,100.00
2022-11-21T22:36:29.364Z,100.00
2022-11-21T22:38:56.529Z,100.00
2022-11-21T22:41:25.669Z,100.00
2022-11-21T22:43:57.773Z,100.00
2022-11-21T22:46:26.997Z,100.00
2022-11-21T22:48:53.896Z,100.00
2022-11-21T22:51:23.508Z,100.00
2022-11-21T22:53:50.869Z,100.00
2022-11-21T22:56:20.355Z,100.00
2022-11-21T22:58:47.694Z,100.00
2022-11-21T23:01:16.860Z,100.00
2022-11-21T23:03:44.308Z,100.00
2022-11-21T23:06:13.839Z,100.00
2022-11-21T23:08:40.900Z,100.00
2022-11-21T23:11:16.357Z,100.00
2022-11-21T23:13:44.679Z,100.00
2022-11-21T23:16:12.044Z,100.00
2022-11-21T23:18:39.601Z,100.00
2022-11-21T23:21:06.548Z,100.00
2022-11-21T23:23:33.513Z,100.00
2022-11-21T23:25:59.973Z,100.00
2022-11-21T23:28:26.786Z,100.00
2022-11-21T23:30:53.735Z,100.00
2022-11-21T23:33:20.422Z,100.00
2022-11-21T23:35:47.260Z,100.00
2022-11-21T23:38:15.582Z,100.00
2022-11-21T23:40:44.644Z,100.00
2022-11-21T23:43:11.216Z,100.00
2022-11-21T23:45:37.876Z,100.00
2022-11-21T23:48:04.560Z,100.00
2022-11-21T23:50:30.998Z,100.00
2022-11-21T23:52:57.452Z,100.00
2022-11-21T23:55:23.902Z,100.00
2022-11-21T23:57:51.158Z,100.00
